createdAt,value
2017-09-23T00:00:10.815Z,23.30
2017-09-23T00:02:45.401Z,24.60
2017-09-23T00:05:20.141Z,26.80
2017-09-23T00:07:54.827Z,27.97
2017-09-23T00:10:30.498Z,27.47
2017-09-23T00:13:05.247Z,30.50
2017-09-23T00:15:40.041Z,32.03
2017-09-23T00:18:15.779Z,26.93
2017-09-23T00:20:50.434Z,26.93
2017-09-23T00:23:25.087Z,25.70
2017-09-23T00:25:59.756Z,24.17
2017-09-23T00:28:34.623Z,26.87
2017-09-23T00:31:09.274Z,25.20
2017-09-23T00:33:43.957Z,28.70
2017-09-23T00:36:18.827Z,28.10
2017-09-23T00:38:53.706Z,27.80
2017-09-23T00:41:28.334Z,27.43
2017-09-23T00:44:02.821Z,31.57
2017-09-23T00:46:38.115Z,31.20
2017-09-23T00:49:12.746Z,29.73
2017-09-23T00:51:47.199Z,30.73
2017-09-23T00:54:21.911Z,31.27
2017-09-23T00:56:56.959Z,30.40
2017-09-23T00:59:31.689Z,32.43
2017-09-23T01:02:07.136Z,28.20
2017-09-23T01:04:41.547Z,30.67
2017-09-23T01:07:16.370Z,28.73
2017-09-23T01:09:51.727Z,27.87
2017-09-23T01:12:26.311Z,32.60
2017-09-23T01:15:01.240Z,29.17
2017-09-23T01:17:35.955Z,29.17
2017-09-23T01:20:10.681Z,32.23
2017-09-23T01:22:44.967Z,28.33
2017-09-23T01:25:19.340Z,27.03
2017-09-23T01:27:54.278Z,34.83
2017-09-23T01:30:29.086Z,28.10
2017-09-23T01:33:03.853Z,27.13
2017-09-23T01:35:38.868Z,25.70
2017-09-23T01:38:13.294Z,26.77
2017-09-23T01:40:48.139Z,27.40
2017-09-23T01:43:22.764Z,25.00
2017-09-23T01:45:57.398Z,26.50
2017-09-23T01:48:32.024Z,26.87
2017-09-23T01:51:07.035Z,27.27
2017-09-23T01:53:41.876Z,25.97
2017-09-23T01:56:17.111Z,25.80
2017-09-23T01:58:52.058Z,26.93
2017-09-23T02:01:26.607Z,27.17
2017-09-23T02:04:01.399Z,27.13
2017-09-23T02:06:36.001Z,25.17
2017-09-23T02:09:10.676Z,26.10
2017-09-23T02:11:45.463Z,27.77
2017-09-23T02:14:20.182Z,27.47
2017-09-23T02:16:55.187Z,29.87
2017-09-23T02:19:29.932Z,27.37
2017-09-23T02:22:04.758Z,27.40
2017-09-23T02:24:39.463Z,26.33
2017-09-23T02:27:14.087Z,26.40
2017-09-23T02:29:48.852Z,26.83
2017-09-23T02:32:23.485Z,25.73
2017-09-23T02:34:58.142Z,33.80
2017-09-23T02:37:32.803Z,30.50
2017-09-23T02:40:07.491Z,29.27
2017-09-23T02:42:42.178Z,27.23
2017-09-23T02:45:16.682Z,28.67
2017-09-23T02:47:52.409Z,28.83
2017-09-23T02:50:27.968Z,26.93
2017-09-23T02:53:02.695Z,27.17
2017-09-23T02:55:37.465Z,26.60
2017-09-23T02:58:12.546Z,26.70
2017-09-23T03:00:47.567Z,32.23
2017-09-23T03:03:22.386Z,33.10
2017-09-23T03:05:57.236Z,33.50
2017-09-23T03:08:32.047Z,36.10
2017-09-23T03:11:06.880Z,30.70
2017-09-23T03:13:42.472Z,34.50
2017-09-23T03:16:17.334Z,35.77
2017-09-23T03:18:52.273Z,33.80
2017-09-23T03:21:27.077Z,33.40
2017-09-23T03:24:01.787Z,27.60
2017-09-23T03:26:36.437Z,27.60
2017-09-23T03:29:11.042Z,36.03
2017-09-23T03:31:45.778Z,38.70
2017-09-23T03:34:20.703Z,36.67
2017-09-23T03:36:55.455Z,35.23
2017-09-23T03:39:30.246Z,33.97
2017-09-23T03:42:04.759Z,36.63
2017-09-23T03:44:39.640Z,39.50
2017-09-23T03:47:14.352Z,36.27
2017-09-23T03:49:48.899Z,36.40
2017-09-23T03:52:23.835Z,38.43
2017-09-23T03:54:58.452Z,34.40
2017-09-23T03:57:33.150Z,39.87
2017-09-23T04:00:08.639Z,38.07
2017-09-23T04:02:43.252Z,33.37
2017-09-23T04:05:18.771Z,33.20
2017-09-23T04:07:53.392Z,38.87
2017-09-23T04:10:29.107Z,40.70
2017-09-23T04:13:03.779Z,45.50
2017-09-23T04:15:38.395Z,45.23
2017-09-23T04:18:14.245Z,44.57
2017-09-23T04:20:49.111Z,40.50
2017-09-23T04:23:23.913Z,44.97
2017-09-23T04:25:58.646Z,43.43
2017-09-23T04:28:34.224Z,44.87
2017-09-23T04:31:08.811Z,41.80
2017-09-23T04:33:44.401Z,52.13
2017-09-23T04:36:19.162Z,48.40
2017-09-23T04:38:53.688Z,54.10
2017-09-23T04:41:29.278Z,50.73
2017-09-23T04:44:03.899Z,54.87
2017-09-23T04:46:38.570Z,48.17
2017-09-23T04:49:13.078Z,53.33
2017-09-23T04:51:47.779Z,51.87
2017-09-23T04:54:22.735Z,50.80
2017-09-23T04:56:57.683Z,51.60
2017-09-23T04:59:32.677Z,57.13
2017-09-23T05:02:07.382Z,60.10
2017-09-23T05:04:42.104Z,55.43
2017-09-23T05:07:16.827Z,63.47
2017-09-23T05:09:51.458Z,62.23
2017-09-23T05:12:26.283Z,62.40
2017-09-23T05:15:00.860Z,58.20
2017-09-23T05:17:35.577Z,78.20
2017-09-23T05:20:10.401Z,72.23
2017-09-23T05:22:45.254Z,85.27
2017-09-23T05:25:19.925Z,81.23
2017-09-23T05:27:54.464Z,71.43
2017-09-23T05:30:29.163Z,71.97
2017-09-23T05:33:03.836Z,62.33
2017-09-23T05:35:38.033Z,62.13
2017-09-23T05:38:12.951Z,73.20
2017-09-23T05:40:47.851Z,72.93
2017-09-23T05:43:22.563Z,71.07
2017-09-23T05:45:57.384Z,73.20
2017-09-23T05:48:33.012Z,79.13
2017-09-23T05:51:07.659Z,86.53
2017-09-23T05:53:42.496Z,99.30
2017-09-23T05:56:17.274Z,96.00
2017-09-23T05:58:52.172Z,85.60
2017-09-23T06:01:27.002Z,95.80
2017-09-23T06:04:01.926Z,99.33
2017-09-23T06:06:37.036Z,86.10
2017-09-23T06:09:11.648Z,99.00
2017-09-23T06:11:46.391Z,101.43
2017-09-23T06:14:21.163Z,90.47
2017-09-23T06:16:56.814Z,86.37
2017-09-23T06:19:31.559Z,90.03
2017-09-23T06:22:06.088Z,112.53
2017-09-23T06:24:41.703Z,81.17
2017-09-23T06:27:16.571Z,100.13
2017-09-23T06:29:51.070Z,113.27
2017-09-23T06:32:25.876Z,108.37
2017-09-23T06:35:00.699Z,106.20
2017-09-23T06:37:35.502Z,106.53
2017-09-23T06:40:10.442Z,102.13
2017-09-23T06:42:45.235Z,87.70
2017-09-23T06:45:20.227Z,73.73
2017-09-23T06:47:55.298Z,88.27
2017-09-23T06:50:30.298Z,88.43
2017-09-23T06:53:04.910Z,80.13
2017-09-23T06:55:39.472Z,88.73
2017-09-23T06:58:14.152Z,78.93
2017-09-23T07:00:49.093Z,105.70
2017-09-23T07:03:23.574Z,99.57
2017-09-23T07:05:58.415Z,101.77
2017-09-23T07:08:33.044Z,98.90
2017-09-23T07:11:07.555Z,92.70
2017-09-23T07:13:42.403Z,96.90
2017-09-23T07:16:17.113Z,89.00
2017-09-23T07:18:52.706Z,107.73
2017-09-23T07:21:27.056Z,82.50
2017-09-23T07:24:02.179Z,75.57
2017-09-23T07:26:37.407Z,93.67
2017-09-23T07:29:11.975Z,85.50
2017-09-23T07:31:47.285Z,72.20
2017-09-23T07:34:22.299Z,77.27
2017-09-23T07:36:57.090Z,85.10
2017-09-23T07:39:31.710Z,88.23
2017-09-23T07:42:06.143Z,86.93
2017-09-23T07:44:40.742Z,94.67
2017-09-23T07:47:16.270Z,100.80
2017-09-23T07:49:51.199Z,89.97
2017-09-23T07:52:26.090Z,98.37
2017-09-23T07:55:01.177Z,82.17
2017-09-23T07:57:35.811Z,93.03
2017-09-23T08:00:10.267Z,74.53
2017-09-23T08:02:45.231Z,83.77
2017-09-23T08:05:19.992Z,73.97
2017-09-23T08:07:54.815Z,92.00
2017-09-23T08:10:29.551Z,87.40
2017-09-23T08:13:03.862Z,85.30
2017-09-23T08:15:39.111Z,87.00
2017-09-23T08:18:13.930Z,88.77
2017-09-23T08:20:48.440Z,92.70
2017-09-23T08:23:23.516Z,80.13
2017-09-23T08:25:58.215Z,68.97
2017-09-23T08:28:32.999Z,68.93
2017-09-23T08:31:07.606Z,69.43
2017-09-23T08:33:42.314Z,67.83
2017-09-23T08:36:18.163Z,75.40
2017-09-23T08:38:52.907Z,77.97
2017-09-23T08:41:27.489Z,59.27
2017-09-23T08:44:02.718Z,72.17
2017-09-23T08:46:37.424Z,68.17
2017-09-23T08:49:12.173Z,78.00
2017-09-23T08:51:46.883Z,80.87
2017-09-23T08:54:21.795Z,74.43
2017-09-23T08:56:56.911Z,75.67
2017-09-23T08:59:31.564Z,72.37
2017-09-23T09:02:06.330Z,74.23
2017-09-23T09:04:41.019Z,76.80
2017-09-23T09:07:15.807Z,61.13
2017-09-23T09:09:50.521Z,79.87
2017-09-23T09:12:26.263Z,75.20
2017-09-23T09:15:01.250Z,71.50
2017-09-23T09:17:36.071Z,60.20
2017-09-23T09:20:11.295Z,148.63
2017-09-23T09:22:45.930Z,107.30
2017-09-23T09:25:20.900Z,92.27
2017-09-23T09:27:55.990Z,104.47
2017-09-23T09:30:30.745Z,86.63
2017-09-23T09:33:05.138Z,79.00
2017-09-23T09:35:40.377Z,70.67
2017-09-23T09:38:15.026Z,76.20
2017-09-23T09:40:50.067Z,66.20
2017-09-23T09:43:24.789Z,68.30
2017-09-23T09:45:59.623Z,64.37
2017-09-23T09:48:34.316Z,65.47
2017-09-23T09:51:09.030Z,68.67
2017-09-23T09:53:43.725Z,64.90
2017-09-23T09:56:18.562Z,69.20
2017-09-23T09:58:53.552Z,65.40
2017-09-23T10:01:28.661Z,58.07
2017-09-23T10:04:03.519Z,60.47
2017-09-23T10:06:38.337Z,62.97
2017-09-23T10:09:12.997Z,69.07
2017-09-23T10:11:47.769Z,62.40
2017-09-23T10:14:22.823Z,65.57
2017-09-23T10:16:57.639Z,63.53
2017-09-23T10:19:32.147Z,61.03
2017-09-23T10:22:07.115Z,71.50
2017-09-23T10:24:41.839Z,60.90
2017-09-23T10:27:16.346Z,64.17
2017-09-23T10:29:51.638Z,62.40
2017-09-23T10:32:26.355Z,58.90
2017-09-23T10:35:01.057Z,52.20
2017-09-23T10:37:35.928Z,62.80
2017-09-23T10:40:10.673Z,58.63
2017-09-23T10:42:45.309Z,56.27
2017-09-23T10:45:19.774Z,52.27
2017-09-23T10:47:54.547Z,52.17
2017-09-23T10:50:29.156Z,57.43
2017-09-23T10:53:03.591Z,59.37
2017-09-23T10:55:38.527Z,52.13
2017-09-23T10:58:13.471Z,58.17
2017-09-23T11:00:48.485Z,57.10
2017-09-23T11:03:23.424Z,56.30
2017-09-23T11:05:58.222Z,57.33
2017-09-23T11:08:32.855Z,55.37
2017-09-23T11:11:07.575Z,52.73
2017-09-23T11:13:42.295Z,54.10
2017-09-23T11:16:16.802Z,57.70
2017-09-23T11:18:52.595Z,51.57
2017-09-23T11:21:27.097Z,53.13
2017-09-23T11:24:01.903Z,50.70
2017-09-23T11:26:36.550Z,46.13
2017-09-23T11:29:11.160Z,51.60
2017-09-23T11:31:45.911Z,49.33
2017-09-23T11:34:20.824Z,54.97
2017-09-23T11:36:56.526Z,41.00
2017-09-23T11:39:30.999Z,46.33
2017-09-23T11:42:05.554Z,46.93
2017-09-23T11:44:40.079Z,52.97
2017-09-23T11:47:14.903Z,50.70
2017-09-23T11:49:49.632Z,50.30
2017-09-23T11:52:25.367Z,52.83
2017-09-23T11:55:00.047Z,49.30
2017-09-23T11:57:34.671Z,50.77
2017-09-23T12:00:09.403Z,49.90
2017-09-23T12:02:44.190Z,48.90
2017-09-23T12:05:18.801Z,39.97
2017-09-23T12:07:53.499Z,45.63
2017-09-23T12:10:28.194Z,45.67
2017-09-23T12:13:02.592Z,45.33
2017-09-23T12:15:37.495Z,43.63
2017-09-23T12:18:12.118Z,39.43
2017-09-23T12:20:46.719Z,43.50
2017-09-23T12:23:22.342Z,43.93
2017-09-23T12:25:56.989Z,44.97
2017-09-23T12:28:31.612Z,42.10
2017-09-23T12:31:06.376Z,40.63
2017-09-23T12:33:41.030Z,44.70
2017-09-23T12:36:16.607Z,41.33
2017-09-23T12:38:51.326Z,38.77
2017-09-23T12:41:26.082Z,43.70
2017-09-23T12:44:00.735Z,39.30
2017-09-23T12:46:35.549Z,40.83
2017-09-23T12:49:11.293Z,41.50
2017-09-23T12:51:46.751Z,41.23
2017-09-23T12:54:21.561Z,40.50
2017-09-23T12:56:56.182Z,42.20
2017-09-23T12:59:30.726Z,40.10
2017-09-23T13:02:05.606Z,44.73
2017-09-23T13:04:40.551Z,43.37
2017-09-23T13:07:15.418Z,43.00
2017-09-23T13:09:50.229Z,40.90
2017-09-23T13:12:24.855Z,44.37
2017-09-23T13:14:59.531Z,48.30
2017-09-23T13:17:34.225Z,40.63
2017-09-23T13:20:09.057Z,41.17
2017-09-23T13:22:43.899Z,46.40
2017-09-23T13:25:18.720Z,45.67
2017-09-23T13:27:53.475Z,40.60
2017-09-23T13:30:27.998Z,41.93
2017-09-23T13:33:03.613Z,44.47
2017-09-23T13:35:38.149Z,39.60
2017-09-23T13:38:12.892Z,36.80
2017-09-23T13:40:49.146Z,44.10
2017-09-23T13:43:24.440Z,42.10
2017-09-23T13:45:59.497Z,39.70
2017-09-23T13:48:34.279Z,44.03
2017-09-23T13:51:09.017Z,34.70
2017-09-23T13:53:43.615Z,40.30
2017-09-23T13:56:18.354Z,37.03
2017-09-23T13:58:52.884Z,38.20
2017-09-23T14:01:27.716Z,39.90
2017-09-23T14:04:03.404Z,38.60
2017-09-23T14:06:38.683Z,39.70
2017-09-23T14:09:13.709Z,37.00
2017-09-23T14:11:48.634Z,41.07
2017-09-23T14:14:22.952Z,42.33
2017-09-23T14:16:58.267Z,38.90
2017-09-23T14:19:33.075Z,28.20
2017-09-23T14:22:07.879Z,38.27
2017-09-23T14:24:42.797Z,40.50
2017-09-23T14:27:17.584Z,37.77
2017-09-23T14:29:52.314Z,41.57
2017-09-23T14:32:27.321Z,40.53
2017-09-23T14:35:01.920Z,38.97
2017-09-23T14:37:36.414Z,36.93
2017-09-23T14:40:11.082Z,41.03
2017-09-23T14:42:45.827Z,39.20
2017-09-23T14:45:20.635Z,31.67
2017-09-23T14:47:55.416Z,32.50
2017-09-23T14:50:30.167Z,27.63
2017-09-23T14:53:04.897Z,37.70
2017-09-23T14:55:39.500Z,40.43
2017-09-23T14:58:14.305Z,42.57
2017-09-23T15:00:49.930Z,38.23
2017-09-23T15:03:25.576Z,39.50
2017-09-23T15:06:00.440Z,37.37
2017-09-23T15:08:35.055Z,40.93
2017-09-23T15:11:09.747Z,40.73
2017-09-23T15:13:44.336Z,39.80
2017-09-23T15:16:18.926Z,36.13
2017-09-23T15:18:53.731Z,40.27
2017-09-23T15:21:28.473Z,38.67
2017-09-23T15:24:03.781Z,36.53
2017-09-23T15:26:38.295Z,38.17
2017-09-23T15:29:13.020Z,44.37
2017-09-23T15:31:47.718Z,31.53
2017-09-23T15:34:22.328Z,42.83
2017-09-23T15:36:57.167Z,41.87
2017-09-23T15:39:31.908Z,42.30
2017-09-23T15:42:06.812Z,44.43
2017-09-23T15:44:41.841Z,47.77
2017-09-23T15:47:16.274Z,44.90
2017-09-23T15:49:51.124Z,43.43
2017-09-23T15:52:25.959Z,46.63
2017-09-23T15:55:00.660Z,43.50
2017-09-23T15:57:35.233Z,42.57
2017-09-23T16:00:09.868Z,44.77
2017-09-23T16:02:44.489Z,41.13
2017-09-23T16:05:19.274Z,48.50
2017-09-23T16:07:54.104Z,36.33
2017-09-23T16:10:28.706Z,40.30
2017-09-23T16:13:03.810Z,41.57
2017-09-23T16:15:38.631Z,40.67
2017-09-23T16:18:13.287Z,37.70
2017-09-23T16:20:48.305Z,40.20
2017-09-23T16:23:23.018Z,45.93
2017-09-23T16:25:57.754Z,44.37
2017-09-23T16:28:32.455Z,42.77
2017-09-23T16:31:07.281Z,48.40
2017-09-23T16:33:41.945Z,45.43
2017-09-23T16:36:16.929Z,45.83
2017-09-23T16:38:51.755Z,47.73
2017-09-23T16:41:26.505Z,43.30
2017-09-23T16:44:01.217Z,42.10
2017-09-23T16:46:36.055Z,42.60
2017-09-23T16:49:10.611Z,42.70
2017-09-23T16:51:45.327Z,36.87
2017-09-23T16:54:20.009Z,44.73
2017-09-23T16:56:54.848Z,42.47
2017-09-23T16:59:29.695Z,39.67
2017-09-23T17:02:04.486Z,38.40
2017-09-23T17:04:40.294Z,44.03
2017-09-23T17:07:15.142Z,52.30
2017-09-23T17:09:50.744Z,58.70
2017-09-23T17:12:25.459Z,58.77
2017-09-23T17:15:00.639Z,58.53
2017-09-23T17:17:35.667Z,58.47
2017-09-23T17:20:10.276Z,68.60
2017-09-23T17:22:44.842Z,66.40
2017-09-23T17:25:19.398Z,55.23
2017-09-23T17:27:54.108Z,50.17
2017-09-23T17:30:28.915Z,48.53
2017-09-23T17:33:03.757Z,50.13
2017-09-23T17:35:38.352Z,45.97
2017-09-23T17:38:13.299Z,48.90
2017-09-23T17:40:48.123Z,47.83
2017-09-23T17:43:22.758Z,42.37
2017-09-23T17:45:57.588Z,46.30
2017-09-23T17:48:32.612Z,51.80
2017-09-23T17:51:07.571Z,44.80
2017-09-23T17:53:42.451Z,47.37
2017-09-23T17:56:18.037Z,51.73
2017-09-23T17:58:52.755Z,46.40
2017-09-23T18:01:27.475Z,47.57
2017-09-23T18:04:02.269Z,46.80
2017-09-23T18:06:36.892Z,50.17
2017-09-23T18:09:11.745Z,51.37
2017-09-23T18:11:46.397Z,52.27
2017-09-23T18:14:21.224Z,55.03
2017-09-23T18:16:56.164Z,50.00
2017-09-23T18:19:30.878Z,48.93
2017-09-23T18:22:05.655Z,58.03
2017-09-23T18:24:40.153Z,52.20
2017-09-23T18:27:14.751Z,51.57
2017-09-23T18:29:49.462Z,47.50
2017-09-23T18:32:24.232Z,50.13
2017-09-23T18:34:59.051Z,50.00
2017-09-23T18:37:33.903Z,49.17
2017-09-23T18:40:08.711Z,50.00
2017-09-23T18:42:43.543Z,53.07
2017-09-23T18:45:19.050Z,53.77
2017-09-23T18:47:54.092Z,56.10
2017-09-23T18:50:28.901Z,57.43
2017-09-23T18:53:03.795Z,53.57
2017-09-23T18:55:38.558Z,55.13
2017-09-23T18:58:13.372Z,54.83
2017-09-23T19:00:48.028Z,51.10
2017-09-23T19:03:22.712Z,56.97
2017-09-23T19:05:57.439Z,55.00
2017-09-23T19:08:32.086Z,55.90
2017-09-23T19:11:06.699Z,51.67
2017-09-23T19:13:41.334Z,58.50
2017-09-23T19:16:16.933Z,54.77
2017-09-23T19:18:51.666Z,54.17
2017-09-23T19:21:26.753Z,47.73
2017-09-23T19:24:02.487Z,55.97
2017-09-23T19:26:37.116Z,52.30
2017-09-23T19:29:11.820Z,59.63
2017-09-23T19:31:46.206Z,56.43
2017-09-23T19:34:20.975Z,58.60
2017-09-23T19:36:55.674Z,61.70
2017-09-23T19:39:30.607Z,63.63
2017-09-23T19:42:05.356Z,60.47
2017-09-23T19:44:39.908Z,55.23
2017-09-23T19:47:14.516Z,59.80
2017-09-23T19:49:58.381Z,54.50
2017-09-23T19:52:33.220Z,60.97
2017-09-23T19:55:08.352Z,55.30
2017-09-23T19:57:43.203Z,60.73
2017-09-23T20:00:19.665Z,65.37
2017-09-23T20:02:54.268Z,59.20
2017-09-23T20:05:28.987Z,62.07
2017-09-23T20:08:03.771Z,59.10
2017-09-23T20:10:38.710Z,63.17
2017-09-23T20:13:13.399Z,61.20
2017-09-23T20:15:48.141Z,61.20
2017-09-23T20:18:22.786Z,57.47
2017-09-23T20:20:57.228Z,57.47
2017-09-23T20:23:32.111Z,56.93
2017-09-23T20:26:06.839Z,61.07
2017-09-23T20:28:41.550Z,57.37
2017-09-23T20:31:17.214Z,56.00
2017-09-23T20:33:51.855Z,54.43
2017-09-23T20:36:26.491Z,58.47
2017-09-23T20:39:01.187Z,56.90
2017-09-23T20:41:35.814Z,49.60
2017-09-23T20:44:10.561Z,47.60
2017-09-23T20:46:45.514Z,46.53
2017-09-23T20:49:20.241Z,45.80
2017-09-23T20:51:55.041Z,47.07
2017-09-23T20:54:29.955Z,45.80
2017-09-23T20:57:04.886Z,42.37
2017-09-23T20:59:39.595Z,46.20
2017-09-23T21:02:14.515Z,59.03
2017-09-23T21:04:49.247Z,60.60
2017-09-23T21:07:24.123Z,55.33
2017-09-23T21:09:58.927Z,55.33
2017-09-23T21:12:33.430Z,59.03
2017-09-23T21:15:08.139Z,61.40
2017-09-23T21:17:42.862Z,58.93
2017-09-23T21:20:17.752Z,61.53
2017-09-23T21:22:52.478Z,61.87
2017-09-23T21:25:27.514Z,62.90
2017-09-23T21:28:03.086Z,63.07
2017-09-23T21:30:38.146Z,63.50
2017-09-23T21:33:12.975Z,64.80
2017-09-23T21:35:48.119Z,67.60
2017-09-23T21:38:23.543Z,63.50
2017-09-23T21:40:58.143Z,63.63
2017-09-23T21:43:32.933Z,58.73
2017-09-23T21:46:07.747Z,60.67
2017-09-23T21:48:43.370Z,62.70
2017-09-23T21:51:18.131Z,65.00
2017-09-23T21:53:52.955Z,65.77
2017-09-23T21:56:27.811Z,73.90
2017-09-23T21:59:02.633Z,63.37
2017-09-23T22:01:37.243Z,72.20
2017-09-23T22:04:11.976Z,71.10
2017-09-23T22:06:46.656Z,72.50
2017-09-23T22:09:21.476Z,78.33
2017-09-23T22:11:56.212Z,72.47
2017-09-23T22:14:30.716Z,82.10
2017-09-23T22:17:05.339Z,71.40
2017-09-23T22:19:40.059Z,73.20
2017-09-23T22:22:14.852Z,75.70
2017-09-23T22:24:49.876Z,69.37
2017-09-23T22:27:24.673Z,57.60
2017-09-23T22:29:59.503Z,53.53
2017-09-23T22:32:34.120Z,52.40
2017-09-23T22:35:09.012Z,53.27
2017-09-23T22:37:43.623Z,50.03
2017-09-23T22:40:19.244Z,52.97
2017-09-23T22:42:54.179Z,55.13
2017-09-23T22:45:28.919Z,59.27
2017-09-23T22:48:03.780Z,53.60
2017-09-23T22:50:38.403Z,51.23
2017-09-23T22:53:13.191Z,52.67
2017-09-23T22:55:47.853Z,62.17
2017-09-23T22:58:22.600Z,54.37
2017-09-23T23:00:57.170Z,55.20
2017-09-23T23:03:32.175Z,51.90
2017-09-23T23:06:06.830Z,54.20
2017-09-23T23:08:42.309Z,45.00
2017-09-23T23:11:17.911Z,53.10
2017-09-23T23:13:52.577Z,58.07
2017-09-23T23:16:27.196Z,53.20
2017-09-23T23:19:01.904Z,48.87
2017-09-23T23:21:36.346Z,50.33
2017-09-23T23:24:11.452Z,58.87
2017-09-23T23:26:46.381Z,57.10
2017-09-23T23:29:21.057Z,55.67
2017-09-23T23:31:55.836Z,59.30
2017-09-23T23:34:30.538Z,62.97
2017-09-23T23:37:05.626Z,68.03
2017-09-23T23:39:40.500Z,68.20
2017-09-23T23:42:15.216Z,67.50
2017-09-23T23:44:50.027Z,70.47
2017-09-23T23:47:24.880Z,77.80
2017-09-23T23:49:59.635Z,80.10
2017-09-23T23:52:34.143Z,76.90
2017-09-23T23:55:08.779Z,79.87
2017-09-23T23:57:43.451Z,76.80
